NCAR-RAP Real-Time Weather Data

Output produced by METARs form (24 January 2022  22:13 UTC)
found at http://weather.rap.ucar.edu/surface/
 
KILG 242151Z 17011KT 10SM OVC110 01/M06 A2987 RMK AO2 SLP115 T00111056 $
KILG 242051Z 16007KT 10SM CLR 02/M06 A2987 RMK AO2 SLP116 T00171061 56007 $
KILG 241951Z 15006KT 10SM CLR 02/M07 A2987 RMK AO2 SLP116 T00171067 $
KILG 241851Z 00000KT 10SM CLR 02/M07 A2988 RMK AO2 SLP120 T00221072 $
KILG 241751Z 06005KT 10SM FEW036 01/M07 A2989 RMK AO2 PRESFR SLP123 T00061072 10017 21044 58023 $
KILG 241651Z 36003KT 10SM CLR 02/M08 A2993 RMK AO2 SLP135 T00171078 $
KILG 241551Z 34007KT 10SM CLR 01/M07 A2995 RMK AO2 SLP143 T00061072
KILG 241451Z 35006KT 10SM CLR M01/M07 A2996 RMK AO2 SLP146 T10061067 51012 $
KILG 241351Z 01006KT 8SM CLR M01/M06 A2996 RMK AO2 SLP146 T10111061 $
KILG 241251Z 29003KT 8SM CLR M03/M07 A2995 RMK AO2 SLP141 T10331067 $